createdAt,value
2018-01-24T00:08:03.544Z,100924
2018-01-24T00:18:05.086Z,100916
2018-01-24T00:28:06.699Z,100917
2018-01-24T00:38:08.264Z,100923
2018-01-24T00:48:10.061Z,100916
2018-01-24T00:58:12.340Z,100922
2018-01-24T01:08:13.892Z,100914
2018-01-24T01:18:15.437Z,100918
2018-01-24T01:28:16.955Z,100908
2018-01-24T01:38:18.501Z,100901
2018-01-24T01:48:31.431Z,100890
2018-01-24T01:58:33.708Z,100897
2018-01-24T02:08:35.256Z,100905
2018-01-24T02:18:37.516Z,100915
2018-01-24T02:28:39.144Z,100901
2018-01-24T02:38:59.268Z,100900
2018-01-24T02:49:00.794Z,100875
2018-01-24T02:59:02.311Z,100880
2018-01-24T03:09:04.601Z,100888
2018-01-24T03:19:06.127Z,100881
2018-01-24T03:29:07.688Z,100870
2018-01-24T03:39:09.227Z,100876
2018-01-24T03:49:11.522Z,100864
2018-01-24T03:59:13.113Z,100859
2018-01-24T04:09:14.764Z,100853
2018-01-24T04:19:16.412Z,100871
2018-01-24T04:29:17.960Z,100847
2018-01-24T04:39:20.245Z,100856
2018-01-24T04:49:21.812Z,100848
2018-01-24T04:59:23.344Z,100852
2018-01-24T05:09:24.940Z,100844
2018-01-24T05:19:26.512Z,100849
2018-01-24T05:29:28.022Z,100850
2018-01-24T05:39:29.547Z,100846
2018-01-24T05:49:31.092Z,100831
2018-01-24T05:59:32.683Z,100829
2018-01-24T06:09:34.312Z,100826
2018-01-24T06:19:35.950Z,100836
2018-01-24T06:29:37.995Z,100833
2018-01-24T06:39:39.532Z,100843
2018-01-24T06:49:41.109Z,100833
2018-01-24T06:59:44.002Z,100824
2018-01-24T07:09:45.553Z,100820
2018-01-24T07:19:47.218Z,100815
2018-01-24T07:29:49.518Z,100818
2018-01-24T07:39:51.104Z,100825
2018-01-24T07:49:52.695Z,100817
2018-01-24T07:59:54.244Z,100814
2018-01-24T08:09:55.823Z,100815
2018-01-24T08:19:58.191Z,100804
2018-01-24T08:29:59.745Z,100815
2018-01-24T08:40:02.050Z,100815
2018-01-24T08:50:03.595Z,100822
2018-01-24T09:00:05.233Z,100819
2018-01-24T09:10:06.974Z,100821
2018-01-24T09:20:09.268Z,100823
2018-01-24T09:30:10.827Z,100804
2018-01-24T09:40:12.384Z,100803
2018-01-24T09:50:14.714Z,100802
2018-01-24T10:00:17.310Z,100813
2018-01-24T10:10:18.841Z,100798
2018-01-24T10:20:21.158Z,100793
2018-01-24T10:30:23.444Z,100789
2018-01-24T10:40:25.022Z,100775
2018-01-24T10:50:26.608Z,100759
2018-01-24T11:00:28.238Z,100755
2018-01-24T11:10:36.820Z,100738
2018-01-24T11:20:38.380Z,100725
2018-01-24T11:30:39.888Z,100707
2018-01-24T11:40:41.449Z,100687
2018-01-24T11:50:43.040Z,100662
2018-01-24T12:00:45.437Z,100635
2018-01-24T12:10:47.057Z,100614
2018-01-24T12:20:49.544Z,100610
2018-01-24T12:30:51.156Z,100595
2018-01-24T12:40:52.710Z,100574
2018-01-24T12:50:54.259Z,100551
2018-01-24T13:00:55.790Z,100541
2018-01-24T13:10:58.292Z,100522
2018-01-24T13:21:00.587Z,100518
2018-01-24T13:31:02.132Z,100499
2018-01-24T13:41:03.644Z,100496
2018-01-24T13:51:05.233Z,100477
2018-01-24T14:01:06.771Z,100469
2018-01-24T14:11:08.432Z,100456
2018-01-24T14:21:10.031Z,100446
2018-01-24T14:31:12.328Z,100427
2018-01-24T14:41:13.868Z,100415
2018-01-24T14:51:15.480Z,100408
2018-01-24T15:01:17.047Z,100411
2018-01-24T15:11:18.579Z,100387
2018-01-24T15:21:20.127Z,100386
2018-01-24T15:31:21.735Z,100359
2018-01-24T15:41:24.004Z,100371
2018-01-24T15:51:25.583Z,100365
2018-01-24T16:01:27.168Z,100353
2018-01-24T16:11:29.489Z,100321
2018-01-24T16:21:31.167Z,100326
2018-01-24T16:31:32.795Z,100331
2018-01-24T16:41:34.376Z,100333
2018-01-24T16:51:36.676Z,100315
2018-01-24T17:01:38.223Z,100302
2018-01-24T17:11:39.967Z,100287
2018-01-24T17:21:41.651Z,100279
2018-01-24T17:31:43.258Z,100261
2018-01-24T17:41:44.962Z,100242
2018-01-24T17:51:47.565Z,100245
2018-01-24T18:01:49.272Z,100240
2018-01-24T18:11:50.860Z,100227
2018-01-24T18:21:52.487Z,100229
2018-01-24T18:31:54.043Z,100240
2018-01-24T18:41:56.377Z,100239
2018-01-24T18:51:57.976Z,100226
2018-01-24T19:01:59.597Z,100228
2018-01-24T19:12:01.213Z,100207
2018-01-24T19:22:03.080Z,100194
2018-01-24T19:32:04.653Z,100193
2018-01-24T19:42:06.250Z,100211
2018-01-24T19:52:07.854Z,100202
2018-01-24T20:02:09.463Z,100195
2018-01-24T20:12:11.739Z,100181
2018-01-24T20:22:14.148Z,100173
2018-01-24T20:32:15.711Z,100168
2018-01-24T20:42:18.094Z,100165
2018-01-24T20:52:20.036Z,100171
2018-01-24T21:02:22.444Z,100169
2018-01-24T21:12:24.004Z,100169
2018-01-24T21:22:25.616Z,100160
2018-01-24T21:32:45.742Z,100145
2018-01-24T21:42:47.314Z,100138
2018-01-24T21:52:48.886Z,100138
2018-01-24T22:02:51.239Z,100142
2018-01-24T22:12:52.806Z,100145
2018-01-24T22:22:55.139Z,100147
2018-01-24T22:32:56.774Z,100143
2018-01-24T22:42:59.019Z,100152
2018-01-24T22:53:00.574Z,100162
2018-01-24T23:03:02.157Z,100157
2018-01-24T23:13:04.416Z,100153
2018-01-24T23:23:06.000Z,100157
2018-01-24T23:33:08.268Z,100159
2018-01-24T23:43:09.908Z,100152
2018-01-24T23:53:11.388Z,100150
